K-storm — V2DV8 — position and weather

sailwx.info

Track history (hours):
 
Tides and Currents Weather Stations Pressure Air Temp Water Temp Dewpoint Dewpoint Depression Visibility Wind Speed Wind Dir Waves Ship Positions

K-storm

Last reported at 2017-Jan-18 12:25 UTC. Time now 2017-Jan-19 06:39 UTC.
Position N 25°25' W 079°40'.

Length 139 m; draft 5.7 m.

Type: Cargo ship. MMSI: 305350000.

Date/timePositionNaut miles runAvg speedWind from/ knotsBaromVisibWave heightAir tempDewpointWater temp
2017-Jan-18 12:25N 25°25' W 079°40'1214.1
2017-Jan-18 11:33N 25°37' W 079°41'1313.2
2017-Jan-18 10:33N 25°49' W 079°47'1313.5
2017-Jan-18 09:33N 25°59' W 079°56'1111.4
2017-Jan-18 08:33N 26°06' W 080°07'2 1.5
2017-Jan-18 07:31N 26°04' W 080°07'0 0.0
2017-Jan-18 06:33N 26°04' W 080°07'0 0.0
2017-Jan-18 05:33N 26°04' W 080°07'0 0.0
2017-Jan-18 04:32N 26°04' W 080°07'0 0.0
2017-Jan-18 03:32N 26°04' W 080°07'0 0.0
2017-Jan-18 02:31N 26°04' W 080°07'0 0.0
2017-Jan-18 01:31N 26°04' W 080°07'0 0.0
2017-Jan-18 00:33N 26°04' W 080°07'0 0.0
2017-Jan-17 23:33N 26°04' W 080°07'0 0.2
2017-Jan-17 22:33N 26°04' W 080°07'8 7.9
2017-Jan-17 21:33N 26°01' W 079°59'1918.8
2017-Jan-17 20:33N 25°47' W 079°45'1818.3
2017-Jan-17 19:34N 25°29' W 079°41'  
2017-Jan-11 02:10N 25°24' W 079°40'914.1
2017-Jan-11 01:33N 25°32' W 079°41'1413.6
2017-Jan-11 00:34N 25°46' W 079°44'1313.3
2017-Jan-10 23:33N 25°56' W 079°53'1313.1
2017-Jan-10 22:33N 26°05' W 080°04'2 2.4
2017-Jan-10 21:31N 26°04' W 080°07'0 0.0
2017-Jan-10 20:33N 26°04' W 080°07'0 0.0
2017-Jan-10 19:33N 26°04' W 080°07'0 0.0
2017-Jan-10 18:32N 26°04' W 080°07'0 0.0
2017-Jan-10 17:29N 26°04' W 080°07'0 0.0
2017-Jan-10 16:31N 26°04' W 080°07'0 0.0
2017-Jan-10 15:31N 26°04' W 080°07'0 0.0
2017-Jan-10 14:30N 26°04' W 080°07'0 0.0
2017-Jan-10 13:33N 26°04' W 080°07'0 0.0
2017-Jan-10 12:33N 26°04' W 080°07'0 0.0
2017-Jan-10 11:32N 26°04' W 080°07'0 0.0
2017-Jan-10 10:32N 26°04' W 080°07'0 0.0
2017-Jan-10 09:31N 26°04' W 080°07'0 0.0
2017-Jan-10 08:31N 26°04' W 080°07'0 0.0
2017-Jan-10 07:33N 26°04' W 080°07'0 0.0
2017-Jan-10 06:33N 26°04' W 080°07'0 0.0
2017-Jan-10 05:33N 26°04' W 080°07'0 0.0
2017-Jan-10 04:32N 26°04' W 080°07'0 0.0
2017-Jan-10 03:32N 26°04' W 080°07'0 0.0
2017-Jan-10 02:28N 26°04' W 080°07'0 0.0
2017-Jan-10 01:28N 26°04' W 080°07'0 0.0
2017-Jan-10 00:33N 26°04' W 080°07'0 0.0
2017-Jan-09 23:30N 26°04' W 080°07'0 0.0
2017-Jan-09 22:33N 26°04' W 080°07'0 0.0
2017-Jan-09 21:32N 26°04' W 080°07'0 0.0
2017-Jan-09 20:32N 26°04' W 080°07'0 0.0
2017-Jan-09 19:31N 26°04' W 080°07'0 0.0
2017-Jan-09 18:31N 26°04' W 080°07'0 0.0
2017-Jan-09 17:33N 26°04' W 080°07'0 0.0
2017-Jan-09 16:33N 26°04' W 080°07'0 0.0
2017-Jan-09 15:33N 26°04' W 080°07'0 0.0
2017-Jan-09 14:32N 26°04' W 080°07'0 0.0
2017-Jan-09 13:32N 26°04' W 080°07'0 0.0
2017-Jan-09 12:32N 26°04' W 080°07'0 0.0
2017-Jan-09 11:31N 26°04' W 080°07'0 0.0
2017-Jan-09 10:31N 26°04' W 080°07'0 0.0
2017-Jan-09 09:33N 26°04' W 080°07'0 0.0
2017-Jan-09 08:33N 26°04' W 080°07'0 0.0
2017-Jan-09 07:33N 26°04' W 080°07'0 0.0
2017-Jan-09 06:32N 26°04' W 080°07'0 0.0
2017-Jan-09 05:32N 26°04' W 080°07'0 0.0
2017-Jan-09 04:31N 26°04' W 080°07'0 0.0
2017-Jan-09 03:31N 26°04' W 080°07'0 0.0
2017-Jan-09 02:33N 26°04' W 080°07'0 0.0
2017-Jan-09 01:33N 26°04' W 080°07'0 0.0
2017-Jan-09 00:33N 26°04' W 080°07'0 0.0
2017-Jan-08 23:33N 26°04' W 080°07'4 3.6
2017-Jan-08 22:33N 26°06' W 080°04'2 1.7
2017-Jan-08 21:33N 26°07' W 080°02'2 1.7
2017-Jan-08 20:33N 26°05' W 080°01'4 3.8
2017-Jan-08 19:33N 26°02' W 079°59'7 7.4
2017-Jan-08 18:33N 25°55' W 079°55'7 6.9
2017-Jan-08 17:33N 25°49' W 079°52'7 6.8
2017-Jan-08 16:33N 25°43' W 079°49'7 7.4
2017-Jan-08 15:33N 25°36' W 079°46'7 6.9
2017-Jan-08 14:33N 25°30' W 079°42'7 6.9
2017-Jan-08 13:33N 25°24' W 079°39'  
Track history (hours):
 
Tides and Currents Weather Stations Pressure Air Temp Water Temp Dewpoint Dewpoint Depression Visibility Wind Speed Wind Dir Waves Ship Positions

K-storm

Last reported at 2017-Jan-18 12:25 UTC. Time now 2017-Jan-19 06:39 UTC.
Position N 25°25' W 079°40'.

Length 139 m; draft 5.7 m.

Type: Cargo ship. MMSI: 305350000.

Date/timePositionNaut miles runAvg speedWind from/ knotsBaromVisibWave heightAir tempDewpointWater temp
2017-Jan-18 12:25N 25°25' W 079°40'1214.1
2017-Jan-18 11:33N 25°37' W 079°41'1313.2
2017-Jan-18 10:33N 25°49' W 079°47'1313.5
2017-Jan-18 09:33N 25°59' W 079°56'1111.4
2017-Jan-18 08:33N 26°06' W 080°07'2 1.5
2017-Jan-18 07:31N 26°04' W 080°07'0 0.0
2017-Jan-18 06:33N 26°04' W 080°07'0 0.0
2017-Jan-18 05:33N 26°04' W 080°07'0 0.0
2017-Jan-18 04:32N 26°04' W 080°07'0 0.0
2017-Jan-18 03:32N 26°04' W 080°07'0 0.0
2017-Jan-18 02:31N 26°04' W 080°07'0 0.0
2017-Jan-18 01:31N 26°04' W 080°07'0 0.0
2017-Jan-18 00:33N 26°04' W 080°07'0 0.0
2017-Jan-17 23:33N 26°04' W 080°07'0 0.2
2017-Jan-17 22:33N 26°04' W 080°07'8 7.9
2017-Jan-17 21:33N 26°01' W 079°59'1918.8
2017-Jan-17 20:33N 25°47' W 079°45'1818.3
2017-Jan-17 19:34N 25°29' W 079°41'  
2017-Jan-11 02:10N 25°24' W 079°40'914.1
2017-Jan-11 01:33N 25°32' W 079°41'1413.6
2017-Jan-11 00:34N 25°46' W 079°44'1313.3
2017-Jan-10 23:33N 25°56' W 079°53'1313.1
2017-Jan-10 22:33N 26°05' W 080°04'2 2.4
2017-Jan-10 21:31N 26°04' W 080°07'0 0.0
2017-Jan-10 20:33N 26°04' W 080°07'0 0.0
2017-Jan-10 19:33N 26°04' W 080°07'0 0.0
2017-Jan-10 18:32N 26°04' W 080°07'0 0.0
2017-Jan-10 17:29N 26°04' W 080°07'0 0.0
2017-Jan-10 16:31N 26°04' W 080°07'0 0.0
2017-Jan-10 15:31N 26°04' W 080°07'0 0.0
2017-Jan-10 14:30N 26°04' W 080°07'0 0.0
2017-Jan-10 13:33N 26°04' W 080°07'0 0.0
2017-Jan-10 12:33N 26°04' W 080°07'0 0.0
2017-Jan-10 11:32N 26°04' W 080°07'0 0.0
2017-Jan-10 10:32N 26°04' W 080°07'0 0.0
2017-Jan-10 09:31N 26°04' W 080°07'0 0.0
2017-Jan-10 08:31N 26°04' W 080°07'0 0.0
2017-Jan-10 07:33N 26°04' W 080°07'0 0.0
2017-Jan-10 06:33N 26°04' W 080°07'0 0.0
2017-Jan-10 05:33N 26°04' W 080°07'0 0.0
2017-Jan-10 04:32N 26°04' W 080°07'0 0.0
2017-Jan-10 03:32N 26°04' W 080°07'0 0.0
2017-Jan-10 02:28N 26°04' W 080°07'0 0.0
2017-Jan-10 01:28N 26°04' W 080°07'0 0.0
2017-Jan-10 00:33N 26°04' W 080°07'0 0.0
2017-Jan-09 23:30N 26°04' W 080°07'0 0.0
2017-Jan-09 22:33N 26°04' W 080°07'0 0.0
2017-Jan-09 21:32N 26°04' W 080°07'0 0.0
2017-Jan-09 20:32N 26°04' W 080°07'0 0.0
2017-Jan-09 19:31N 26°04' W 080°07'0 0.0
2017-Jan-09 18:31N 26°04' W 080°07'0 0.0
2017-Jan-09 17:33N 26°04' W 080°07'0 0.0
2017-Jan-09 16:33N 26°04' W 080°07'0 0.0
2017-Jan-09 15:33N 26°04' W 080°07'0 0.0
2017-Jan-09 14:32N 26°04' W 080°07'0 0.0
2017-Jan-09 13:32N 26°04' W 080°07'0 0.0
2017-Jan-09 12:32N 26°04' W 080°07'0 0.0
2017-Jan-09 11:31N 26°04' W 080°07'0 0.0
2017-Jan-09 10:31N 26°04' W 080°07'0 0.0
2017-Jan-09 09:33N 26°04' W 080°07'0 0.0
2017-Jan-09 08:33N 26°04' W 080°07'0 0.0
2017-Jan-09 07:33N 26°04' W 080°07'0 0.0
2017-Jan-09 06:32N 26°04' W 080°07'0 0.0
2017-Jan-09 05:32N 26°04' W 080°07'0 0.0
2017-Jan-09 04:31N 26°04' W 080°07'0 0.0
2017-Jan-09 03:31N 26°04' W 080°07'0 0.0
2017-Jan-09 02:33N 26°04' W 080°07'0 0.0
2017-Jan-09 01:33N 26°04' W 080°07'0 0.0
2017-Jan-09 00:33N 26°04' W 080°07'0 0.0
2017-Jan-08 23:33N 26°04' W 080°07'4 3.6
2017-Jan-08 22:33N 26°06' W 080°04'2 1.7
2017-Jan-08 21:33N 26°07' W 080°02'2 1.7
2017-Jan-08 20:33N 26°05' W 080°01'4 3.8
2017-Jan-08 19:33N 26°02' W 079°59'7 7.4
2017-Jan-08 18:33N 25°55' W 079°55'7 6.9
2017-Jan-08 17:33N 25°49' W 079°52'7 6.8
2017-Jan-08 16:33N 25°43' W 079°49'7 7.4
2017-Jan-08 15:33N 25°36' W 079°46'7 6.9
2017-Jan-08 14:33N 25°30' W 079°42'7 6.9
2017-Jan-08 13:33N 25°24' W 079°39'  

Dump ship's entire track history